createdAt,value
2018-03-16T00:01:45.259Z,31.53
2018-03-16T00:04:14.598Z,33.00
2018-03-16T00:06:43.940Z,30.10
2018-03-16T00:09:13.154Z,29.77
2018-03-16T00:11:42.348Z,31.17
2018-03-16T00:14:11.826Z,33.07
2018-03-16T00:16:41.828Z,32.50
2018-03-16T00:19:11.055Z,31.87
2018-03-16T00:21:40.306Z,35.10
2018-03-16T00:24:09.677Z,31.90
2018-03-16T00:26:39.017Z,33.07
2018-03-16T00:29:08.059Z,34.63
2018-03-16T00:31:37.279Z,32.90
2018-03-16T00:34:06.483Z,34.77
2018-03-16T00:36:35.700Z,33.67
2018-03-16T00:39:04.933Z,32.20
2018-03-16T00:41:34.901Z,31.60
2018-03-16T00:44:04.131Z,34.40
2018-03-16T00:46:34.096Z,34.40
2018-03-16T00:49:03.264Z,34.30
2018-03-16T00:51:32.510Z,33.17
2018-03-16T00:54:01.718Z,31.97
2018-03-16T00:56:30.936Z,32.40
2018-03-16T00:59:00.194Z,32.17
2018-03-16T01:01:29.475Z,34.23
2018-03-16T01:03:59.398Z,34.57
2018-03-16T01:06:28.616Z,33.10
2018-03-16T01:08:57.802Z,33.13
2018-03-16T01:11:27.027Z,33.50
2018-03-16T01:13:56.231Z,32.67
2018-03-16T01:16:25.447Z,34.97
2018-03-16T01:18:55.390Z,35.03
2018-03-16T01:21:24.603Z,34.37
2018-03-16T01:23:53.863Z,34.23
2018-03-16T01:26:23.806Z,34.97
2018-03-16T01:28:53.014Z,35.10
2018-03-16T01:31:22.442Z,37.27
2018-03-16T01:33:52.555Z,39.50
2018-03-16T01:36:21.779Z,37.37
2018-03-16T01:38:51.022Z,37.40
2018-03-16T01:41:20.225Z,37.47
2018-03-16T01:43:49.463Z,39.00
2018-03-16T01:46:18.655Z,35.57
2018-03-16T01:48:47.877Z,39.07
2018-03-16T01:51:17.095Z,39.33
2018-03-16T01:53:46.322Z,38.13
2018-03-16T01:56:15.557Z,38.83
2018-03-16T01:58:45.537Z,38.13
2018-03-16T02:01:15.423Z,38.60
2018-03-16T02:03:44.719Z,38.60
2018-03-16T02:06:14.667Z,36.97
2018-03-16T02:08:43.922Z,39.17
2018-03-16T02:11:13.143Z,37.20
2018-03-16T02:13:42.347Z,37.67
2018-03-16T02:16:11.605Z,36.87
2018-03-16T02:18:42.051Z,37.57
2018-03-16T02:21:11.270Z,36.40
2018-03-16T02:23:40.508Z,37.57
2018-03-16T02:26:10.643Z,37.83
2018-03-16T02:28:40.630Z,39.60
2018-03-16T02:31:09.847Z,38.03
2018-03-16T02:33:39.903Z,36.43
2018-03-16T02:36:09.857Z,37.00
2018-03-16T02:38:39.058Z,37.73
2018-03-16T02:41:09.270Z,38.63
2018-03-16T02:43:38.464Z,38.73
2018-03-16T02:46:07.693Z,36.60
2018-03-16T02:48:37.648Z,37.30
2018-03-16T02:51:06.867Z,37.70
2018-03-16T02:53:36.107Z,36.37
2018-03-16T02:56:06.145Z,38.90
2018-03-16T02:58:35.363Z,37.20
2018-03-16T03:01:05.390Z,35.50
2018-03-16T03:03:34.611Z,38.67
2018-03-16T03:06:03.802Z,36.13
2018-03-16T03:08:33.014Z,40.40
2018-03-16T03:11:02.219Z,39.80
2018-03-16T03:13:32.211Z,36.23
2018-03-16T03:16:01.407Z,38.70
2018-03-16T03:18:30.618Z,39.97
2018-03-16T03:21:00.127Z,38.60
2018-03-16T03:23:29.351Z,35.73
2018-03-16T03:25:58.559Z,39.00
2018-03-16T03:28:27.836Z,39.87
2018-03-16T03:30:57.779Z,39.17
2018-03-16T03:33:27.513Z,40.50
2018-03-16T03:35:56.756Z,39.80
2018-03-16T03:38:26.737Z,39.53
2018-03-16T03:40:55.951Z,41.17
2018-03-16T03:43:25.915Z,38.90
2018-03-16T03:45:55.114Z,39.13
2018-03-16T03:48:24.344Z,39.00
2018-03-16T03:50:53.590Z,39.77
2018-03-16T03:53:23.553Z,38.13
2018-03-16T03:55:52.786Z,41.40
2018-03-16T03:58:22.738Z,38.50
2018-03-16T04:00:51.952Z,38.70
2018-03-16T04:03:21.139Z,38.70
2018-03-16T04:05:50.406Z,38.43
2018-03-16T04:08:20.575Z,42.10
2018-03-16T04:10:49.818Z,38.40
2018-03-16T04:13:18.999Z,41.87
2018-03-16T04:15:48.989Z,40.73
2018-03-16T04:18:18.203Z,39.70
2018-03-16T04:20:47.438Z,39.60
2018-03-16T04:23:16.727Z,51.67
2018-03-16T04:25:46.761Z,42.00
2018-03-16T04:28:16.308Z,38.70
2018-03-16T04:30:45.662Z,38.80
2018-03-16T04:33:14.866Z,40.60
2018-03-16T04:35:44.101Z,39.93
2018-03-16T04:38:13.295Z,41.30
2018-03-16T04:40:42.514Z,40.70
2018-03-16T04:43:11.730Z,42.50
2018-03-16T04:45:40.970Z,41.40
2018-03-16T04:48:10.486Z,40.37
2018-03-16T04:50:39.674Z,41.97
2018-03-16T04:53:08.875Z,40.27
2018-03-16T04:55:38.078Z,41.87
2018-03-16T04:58:07.330Z,39.63
2018-03-16T05:00:37.339Z,41.63
2018-03-16T05:03:06.947Z,39.73
2018-03-16T05:05:36.924Z,39.40
2018-03-16T05:08:06.976Z,40.40
2018-03-16T05:10:36.948Z,38.77
2018-03-16T05:13:06.142Z,39.33
2018-03-16T05:15:35.338Z,41.57
2018-03-16T05:18:05.335Z,39.70
2018-03-16T05:20:34.532Z,38.00
2018-03-16T05:23:03.772Z,39.73
2018-03-16T05:25:32.958Z,40.40
2018-03-16T05:28:02.392Z,36.70
2018-03-16T05:30:31.590Z,40.07
2018-03-16T05:33:01.550Z,38.57
2018-03-16T05:35:30.754Z,37.73
2018-03-16T05:37:59.974Z,37.53
2018-03-16T05:40:29.219Z,38.07
2018-03-16T05:42:59.211Z,33.47
2018-03-16T05:45:28.451Z,36.10
2018-03-16T05:47:57.664Z,33.30
2018-03-16T05:50:26.860Z,32.80
2018-03-16T05:52:56.139Z,33.37
2018-03-16T05:55:25.343Z,29.07
2018-03-16T05:57:54.544Z,30.60
2018-03-16T06:00:23.771Z,30.00
2018-03-16T06:02:52.978Z,28.53
2018-03-16T06:05:22.192Z,29.60
2018-03-16T06:07:51.442Z,28.87
2018-03-16T06:10:20.625Z,27.07
2018-03-16T06:12:49.865Z,29.10
2018-03-16T06:15:19.119Z,26.93
2018-03-16T06:17:48.332Z,28.37
2018-03-16T06:20:17.664Z,25.30
2018-03-16T06:22:46.863Z,25.07
2018-03-16T06:25:16.070Z,26.00
2018-03-16T06:27:45.264Z,24.50
2018-03-16T06:30:14.520Z,26.13
2018-03-16T06:32:43.743Z,24.33
2018-03-16T06:35:13.028Z,23.63
2018-03-16T06:37:42.222Z,25.13
2018-03-16T06:40:11.446Z,21.70
2018-03-16T06:42:40.615Z,24.57
2018-03-16T06:45:09.823Z,24.90
2018-03-16T06:47:38.999Z,22.80
2018-03-16T06:50:08.242Z,23.27
2018-03-16T06:52:37.440Z,24.87
2018-03-16T06:55:06.638Z,24.00
2018-03-16T06:57:35.943Z,23.30
2018-03-16T07:00:05.135Z,26.30
2018-03-16T07:02:34.340Z,24.57
2018-03-16T07:05:03.582Z,23.67
2018-03-16T07:07:32.791Z,25.10
2018-03-16T07:10:02.126Z,24.10
2018-03-16T07:12:31.376Z,25.63
2018-03-16T07:15:38.426Z,24.63
2018-03-16T07:18:08.492Z,23.53
2018-03-16T07:20:37.702Z,24.10
2018-03-16T07:23:06.910Z,24.63
2018-03-16T07:25:36.925Z,21.93
2018-03-16T07:28:06.122Z,22.30
2018-03-16T07:30:35.340Z,22.30
2018-03-16T07:33:04.543Z,21.67
2018-03-16T07:35:34.568Z,24.23
2018-03-16T07:38:03.775Z,22.07
2018-03-16T07:40:33.775Z,21.77
2018-03-16T07:43:03.774Z,23.10
2018-03-16T07:45:38.317Z,23.43
2018-03-16T07:48:08.345Z,23.10
2018-03-16T07:50:38.322Z,23.83
2018-03-16T07:53:07.551Z,22.93
2018-03-16T07:55:36.828Z,25.80
2018-03-16T07:58:06.023Z,23.40
2018-03-16T08:00:35.221Z,21.37
2018-03-16T08:03:05.239Z,22.90
2018-03-16T08:05:34.456Z,23.27
2018-03-16T08:08:04.438Z,21.60
2018-03-16T08:10:33.668Z,23.50
2018-03-16T08:13:03.654Z,23.00
2018-03-16T08:15:32.835Z,24.47
2018-03-16T08:18:02.038Z,22.37
2018-03-16T08:20:31.236Z,24.53
2018-03-16T08:23:00.463Z,24.03
2018-03-16T08:25:29.766Z,23.13
2018-03-16T08:27:59.789Z,23.93
2018-03-16T08:30:29.032Z,25.17
2018-03-16T08:32:58.253Z,24.20
2018-03-16T08:35:28.227Z,25.63
2018-03-16T08:37:57.440Z,26.07
2018-03-16T08:40:26.639Z,23.93
2018-03-16T08:42:55.860Z,23.10
2018-03-16T08:45:25.062Z,24.37
2018-03-16T08:47:54.291Z,23.90
2018-03-16T08:50:24.255Z,22.87
2018-03-16T08:52:53.467Z,23.70
2018-03-16T08:55:22.677Z,24.40
2018-03-16T08:57:51.897Z,20.43
2018-03-16T09:00:21.878Z,23.93
2018-03-16T09:02:51.119Z,22.00
2018-03-16T09:05:20.339Z,20.30
2018-03-16T09:07:49.550Z,21.50
2018-03-16T09:10:18.763Z,23.03
2018-03-16T09:12:48.051Z,21.30
2018-03-16T09:15:17.267Z,21.60
2018-03-16T09:17:46.518Z,22.70
2018-03-16T09:20:15.717Z,21.80
2018-03-16T09:22:44.994Z,19.73
2018-03-16T09:25:14.978Z,20.37
2018-03-16T09:27:44.210Z,20.10
2018-03-16T09:30:14.216Z,22.40
2018-03-16T09:32:43.434Z,21.53
2018-03-16T09:35:12.835Z,21.43
2018-03-16T09:37:42.100Z,21.57
2018-03-16T09:40:11.355Z,21.30
2018-03-16T09:42:40.827Z,20.80
2018-03-16T09:45:10.790Z,21.30
2018-03-16T09:47:40.013Z,19.70
2018-03-16T09:50:09.225Z,20.10
2018-03-16T09:52:38.450Z,21.10
2018-03-16T09:55:25.532Z,21.73
2018-03-16T09:57:54.772Z,21.27
2018-03-16T10:00:23.972Z,21.10
2018-03-16T10:02:53.194Z,20.40
2018-03-16T10:05:22.462Z,21.67
2018-03-16T10:07:51.664Z,21.90
2018-03-16T10:10:20.888Z,20.37
2018-03-16T10:12:50.203Z,21.13
2018-03-16T10:15:19.458Z,22.63
2018-03-16T10:17:48.949Z,19.63
2018-03-16T10:20:18.986Z,21.87
2018-03-16T10:22:48.956Z,21.37
2018-03-16T10:25:18.163Z,23.10
2018-03-16T10:27:48.251Z,25.10
2018-03-16T10:30:17.476Z,23.40
2018-03-16T10:32:46.686Z,21.50
2018-03-16T10:35:16.656Z,20.50
2018-03-16T10:37:45.866Z,22.30
2018-03-16T10:40:15.094Z,20.57
2018-03-16T10:42:44.525Z,20.20
2018-03-16T10:45:13.746Z,21.50
2018-03-16T10:47:42.983Z,20.33
2018-03-16T10:50:13.029Z,21.43
2018-03-16T10:52:42.999Z,18.73
2018-03-16T10:55:12.177Z,19.50
2018-03-16T10:57:41.372Z,20.23
2018-03-16T11:00:10.591Z,20.73
2018-03-16T11:02:45.248Z,20.60
2018-03-16T11:05:18.625Z,18.00
2018-03-16T11:08:05.396Z,20.30
2018-03-16T11:10:35.360Z,21.13
2018-03-16T11:13:05.367Z,19.40
2018-03-16T11:15:35.304Z,21.83
2018-03-16T11:18:04.501Z,18.00
2018-03-16T11:20:33.725Z,19.63
2018-03-16T11:23:02.920Z,19.43
2018-03-16T11:25:32.116Z,18.10
2018-03-16T11:28:01.318Z,20.50
2018-03-16T11:30:30.839Z,19.33
2018-03-16T11:32:59.983Z,18.60
2018-03-16T11:35:29.264Z,19.80
2018-03-16T11:37:58.502Z,19.23
2018-03-16T11:40:27.723Z,19.00
2018-03-16T11:42:57.173Z,19.17
2018-03-16T11:45:26.390Z,18.33
2018-03-16T11:47:55.595Z,18.17
2018-03-16T11:50:24.921Z,18.30
2018-03-16T11:52:54.114Z,18.17
2018-03-16T11:55:23.704Z,16.57
2018-03-16T11:57:53.700Z,16.87
2018-03-16T12:00:23.234Z,17.90
2018-03-16T12:02:52.527Z,16.60
2018-03-16T12:05:22.498Z,16.67
2018-03-16T12:07:52.562Z,16.70
2018-03-16T12:10:21.846Z,15.73
2018-03-16T12:12:51.173Z,16.43
2018-03-16T12:15:20.439Z,16.70
2018-03-16T12:17:49.666Z,13.50
2018-03-16T12:20:18.851Z,13.83
2018-03-16T12:22:48.071Z,16.30
2018-03-16T12:25:17.268Z,14.73
2018-03-16T12:27:46.484Z,12.70
2018-03-16T12:30:15.766Z,14.07
2018-03-16T12:32:44.979Z,14.37
2018-03-16T12:35:14.224Z,14.80
2018-03-16T12:37:43.391Z,14.07
2018-03-16T12:40:13.371Z,14.27
2018-03-16T12:42:42.648Z,13.40
2018-03-16T12:45:12.565Z,12.07
2018-03-16T12:47:41.810Z,12.07
2018-03-16T12:50:11.845Z,11.57
2018-03-16T12:52:41.832Z,11.67
2018-03-16T12:55:11.040Z,12.10
2018-03-16T12:57:40.498Z,10.97
2018-03-16T13:00:09.724Z,12.10
2018-03-16T13:02:39.839Z,9.80
2018-03-16T13:05:09.058Z,10.07
2018-03-16T13:07:38.405Z,11.23
2018-03-16T13:10:07.613Z,9.00
2018-03-16T13:12:37.672Z,9.73
2018-03-16T13:15:06.887Z,8.97
2018-03-16T13:17:36.859Z,9.13
2018-03-16T13:20:06.082Z,8.93
2018-03-16T13:22:35.301Z,9.47
2018-03-16T13:25:05.277Z,8.50
2018-03-16T13:27:34.559Z,9.30
2018-03-16T13:30:03.808Z,8.43
2018-03-16T13:32:33.784Z,9.37
2018-03-16T13:35:03.058Z,8.40
2018-03-16T13:37:32.267Z,9.37
2018-03-16T13:40:01.501Z,9.00
2018-03-16T13:42:30.703Z,9.70
2018-03-16T13:44:59.973Z,8.00
2018-03-16T13:47:29.245Z,9.30
2018-03-16T13:49:58.504Z,10.10
2018-03-16T13:52:28.496Z,9.20
2018-03-16T13:54:57.711Z,10.90
2018-03-16T13:57:27.164Z,10.60
2018-03-16T13:59:56.418Z,10.63
2018-03-16T14:02:25.648Z,14.50
2018-03-16T14:04:54.838Z,14.07
2018-03-16T14:07:24.063Z,10.93
2018-03-16T14:09:53.287Z,11.40
2018-03-16T14:12:22.617Z,12.30
2018-03-16T14:14:51.815Z,9.27
2018-03-16T14:17:21.793Z,11.87
2018-03-16T14:19:51.029Z,10.60
2018-03-16T14:22:21.110Z,13.03
2018-03-16T14:24:50.359Z,10.83
2018-03-16T14:27:19.605Z,11.37
2018-03-16T14:29:48.822Z,10.00
2018-03-16T14:32:18.036Z,11.10
2018-03-16T14:34:48.226Z,12.10
2018-03-16T14:37:17.475Z,12.37
2018-03-16T14:39:46.694Z,12.57
2018-03-16T14:42:16.002Z,12.40
2018-03-16T14:44:45.181Z,12.97
2018-03-16T14:47:14.470Z,11.73
2018-03-16T14:49:43.626Z,11.80
2018-03-16T14:52:12.849Z,12.73
2018-03-16T14:54:42.961Z,12.50
2018-03-16T14:57:13.149Z,13.00
2018-03-16T14:59:42.368Z,15.03
2018-03-16T15:02:11.729Z,13.97
2018-03-16T15:04:40.936Z,13.83
2018-03-16T15:07:10.219Z,15.80
2018-03-16T15:09:39.463Z,14.93
2018-03-16T15:12:09.535Z,15.40
2018-03-16T15:14:38.803Z,15.07
2018-03-16T15:17:08.811Z,15.80
2018-03-16T15:19:38.821Z,14.50
2018-03-16T15:22:08.835Z,15.33
2018-03-16T15:24:38.866Z,14.70
2018-03-16T15:27:08.867Z,16.20
2018-03-16T15:29:39.000Z,14.67
2018-03-16T15:32:08.144Z,14.43
2018-03-16T15:34:37.336Z,15.73
2018-03-16T15:37:06.567Z,16.47
2018-03-16T15:39:35.786Z,15.23
2018-03-16T15:42:05.827Z,14.80
2018-03-16T15:44:35.091Z,17.30
2018-03-16T15:47:05.539Z,15.47
2018-03-16T15:49:34.748Z,16.10
2018-03-16T15:52:03.990Z,16.33
2018-03-16T15:54:33.986Z,15.27
2018-03-16T15:57:03.197Z,16.87
2018-03-16T15:59:32.431Z,19.00
2018-03-16T16:02:01.667Z,18.10
2018-03-16T16:04:30.866Z,18.03
2018-03-16T16:07:00.096Z,17.73
2018-03-16T16:09:29.411Z,19.50
2018-03-16T16:11:59.424Z,14.93
2018-03-16T16:14:28.662Z,17.90
2018-03-16T16:16:57.994Z,19.00
2018-03-16T16:19:27.264Z,18.67
2018-03-16T16:21:57.370Z,20.40
2018-03-16T16:24:26.853Z,18.33
2018-03-16T16:26:56.095Z,18.97
2018-03-16T16:29:25.344Z,20.03
2018-03-16T16:31:54.574Z,19.80
2018-03-16T16:34:23.793Z,18.97
2018-03-16T16:36:53.029Z,19.37
2018-03-16T16:39:22.263Z,19.60
2018-03-16T16:41:51.463Z,17.97
2018-03-16T16:44:20.667Z,20.07
2018-03-16T16:46:49.898Z,18.10
2018-03-16T16:49:19.126Z,20.43
2018-03-16T16:51:48.369Z,16.57
2018-03-16T16:54:17.561Z,17.57
2018-03-16T16:56:46.780Z,18.63
2018-03-16T16:59:16.003Z,17.43
2018-03-16T17:01:45.207Z,17.40
2018-03-16T17:04:14.659Z,15.80
2018-03-16T17:06:43.864Z,16.23
2018-03-16T17:09:13.927Z,16.90
2018-03-16T17:11:43.936Z,16.13
2018-03-16T17:14:13.142Z,17.20
2018-03-16T17:16:42.369Z,17.23
2018-03-16T17:19:11.567Z,18.10
2018-03-16T17:21:40.816Z,16.47
2018-03-16T17:24:10.060Z,16.60
2018-03-16T17:26:39.330Z,16.33
2018-03-16T17:29:08.552Z,18.37
2018-03-16T17:31:38.514Z,17.53
2018-03-16T17:34:07.739Z,17.23
2018-03-16T17:36:37.027Z,18.40
2018-03-16T17:39:06.204Z,17.73
2018-03-16T17:41:35.496Z,17.20
2018-03-16T17:44:04.729Z,18.40
2018-03-16T17:46:33.992Z,17.50
2018-03-16T17:49:03.214Z,16.60
2018-03-16T17:51:32.439Z,16.90
2018-03-16T17:54:02.455Z,17.30
2018-03-16T17:56:32.452Z,15.33
2018-03-16T17:59:01.725Z,14.40
2018-03-16T18:01:30.927Z,16.00
2018-03-16T18:04:00.164Z,15.23
2018-03-16T18:06:29.460Z,14.53
2018-03-16T18:08:58.703Z,14.23
2018-03-16T18:11:27.907Z,15.63
2018-03-16T18:13:57.151Z,14.47
2018-03-16T18:16:26.367Z,16.20
2018-03-16T18:18:55.625Z,16.13
2018-03-16T18:21:25.009Z,16.17
2018-03-16T18:23:54.230Z,17.07
2018-03-16T18:26:23.458Z,17.60
2018-03-16T18:28:53.496Z,16.47
2018-03-16T18:31:22.856Z,16.20
2018-03-16T18:33:52.079Z,15.87
2018-03-16T18:36:22.072Z,15.63
2018-03-16T18:38:52.083Z,15.50
2018-03-16T18:41:21.372Z,14.80
2018-03-16T18:43:50.786Z,15.40
2018-03-16T18:46:20.783Z,15.63
2018-03-16T18:48:50.019Z,14.47
2018-03-16T18:51:20.107Z,14.23
2018-03-16T18:53:49.430Z,15.67
2018-03-16T18:56:18.806Z,14.90
2018-03-16T18:58:48.020Z,15.93
2018-03-16T19:01:18.010Z,13.57
2018-03-16T19:03:47.228Z,15.30
2018-03-16T19:06:16.477Z,14.10
2018-03-16T19:08:45.778Z,13.10
2018-03-16T19:11:15.878Z,12.83
2018-03-16T19:13:45.900Z,13.47
2018-03-16T19:16:15.260Z,12.63
2018-03-16T19:18:44.496Z,14.53
2018-03-16T19:21:14.480Z,13.27
2018-03-16T19:23:43.837Z,13.40
2018-03-16T19:26:13.110Z,12.40
2018-03-16T19:28:43.135Z,13.17
2018-03-16T19:31:13.113Z,13.93
2018-03-16T19:33:42.338Z,13.67
2018-03-16T19:36:12.342Z,14.67
2018-03-16T19:38:42.424Z,13.70
2018-03-16T19:41:11.625Z,13.80
2018-03-16T19:43:40.859Z,15.20
2018-03-16T19:46:10.910Z,14.67
2018-03-16T19:48:40.225Z,15.20
2018-03-16T19:51:09.528Z,15.20
2018-03-16T19:53:38.779Z,13.87
2018-03-16T19:56:09.022Z,14.53
2018-03-16T19:58:38.988Z,14.80
2018-03-16T20:01:08.186Z,17.03
2018-03-16T20:03:37.416Z,14.03
2018-03-16T20:06:06.657Z,14.83
2018-03-16T20:08:35.888Z,14.80
2018-03-16T20:11:05.966Z,15.53
2018-03-16T20:13:35.403Z,14.10
2018-03-16T20:16:04.612Z,15.13
2018-03-16T20:18:34.705Z,15.73
2018-03-16T20:21:03.956Z,15.70
2018-03-16T20:23:33.191Z,14.90
2018-03-16T20:26:02.458Z,14.60
2018-03-16T20:28:31.674Z,13.97
2018-03-16T20:31:00.952Z,14.53
2018-03-16T20:33:30.168Z,15.03
2018-03-16T20:35:59.643Z,15.10
2018-03-16T20:38:29.738Z,15.13
2018-03-16T20:40:59.739Z,13.77
2018-03-16T20:43:29.001Z,14.93
2018-03-16T20:45:58.226Z,16.00
2018-03-16T20:48:27.446Z,14.40
2018-03-16T20:50:56.704Z,14.67
2018-03-16T20:53:25.924Z,13.60
2018-03-16T20:55:55.154Z,15.87
2018-03-16T20:58:25.157Z,16.13
2018-03-16T21:00:55.157Z,14.77
2018-03-16T21:03:24.429Z,15.87
2018-03-16T21:05:53.712Z,15.87
2018-03-16T21:08:22.958Z,16.13
2018-03-16T21:10:52.183Z,16.90
2018-03-16T21:13:22.150Z,15.20
2018-03-16T21:15:51.379Z,15.70
2018-03-16T21:18:21.380Z,14.53
2018-03-16T21:20:51.444Z,14.80
2018-03-16T21:23:20.634Z,14.40
2018-03-16T21:25:49.952Z,14.87
2018-03-16T21:28:19.508Z,15.37
2018-03-16T21:30:49.697Z,14.10
2018-03-16T21:33:19.987Z,13.93
2018-03-16T21:35:49.209Z,14.37
2018-03-16T21:38:18.431Z,13.73
2018-03-16T21:40:49.190Z,13.50
2018-03-16T21:43:18.391Z,14.50
2018-03-16T21:45:47.881Z,15.20
2018-03-16T21:48:18.699Z,13.57
2018-03-16T21:50:47.935Z,13.13
2018-03-16T21:53:18.670Z,14.43
2018-03-16T21:55:48.675Z,13.37
2018-03-16T21:58:18.668Z,12.83
2018-03-16T22:00:47.947Z,13.27
2018-03-16T22:03:17.237Z,13.13
2018-03-16T22:05:46.491Z,13.57
2018-03-16T22:08:16.475Z,13.77
2018-03-16T22:10:45.848Z,13.80
2018-03-16T22:13:15.074Z,13.60
2018-03-16T22:15:44.289Z,13.53
2018-03-16T22:18:13.603Z,13.13
2018-03-16T22:20:43.747Z,13.20
2018-03-16T22:23:12.992Z,13.07
2018-03-16T22:25:42.171Z,12.97
2018-03-16T22:28:11.411Z,13.47
2018-03-16T22:30:41.402Z,12.77
2018-03-16T22:33:10.618Z,12.20
2018-03-16T22:35:40.631Z,14.93
2018-03-16T22:38:09.895Z,12.57
2018-03-16T22:40:39.108Z,11.83
2018-03-16T22:43:08.366Z,12.00
2018-03-16T22:45:37.616Z,12.80
2018-03-16T22:48:06.847Z,12.13
2018-03-16T22:50:36.813Z,12.53
2018-03-16T22:53:06.068Z,12.80
2018-03-16T22:55:35.321Z,13.13
2018-03-16T22:58:05.315Z,12.60
2018-03-16T23:00:34.545Z,12.43
2018-03-16T23:03:03.780Z,12.87
2018-03-16T23:05:32.979Z,13.17
2018-03-16T23:08:02.195Z,12.47
2018-03-16T23:10:31.446Z,13.23
2018-03-16T23:13:01.490Z,12.67
2018-03-16T23:15:30.814Z,11.30
2018-03-16T23:18:00.050Z,12.10
2018-03-16T23:20:29.564Z,11.37
2018-03-16T23:22:59.548Z,12.50
2018-03-16T23:25:28.786Z,12.90
2018-03-16T23:27:58.754Z,11.20
2018-03-16T23:30:28.027Z,12.30
2018-03-16T23:32:57.243Z,11.10
2018-03-16T23:35:26.488Z,10.87
2018-03-16T23:37:56.468Z,11.43
2018-03-16T23:40:25.699Z,11.50
2018-03-16T23:42:55.834Z,10.50
2018-03-16T23:45:25.106Z,10.00
2018-03-16T23:47:54.312Z,9.20
2018-03-16T23:50:24.386Z,10.30
2018-03-16T23:52:53.642Z,9.63
2018-03-16T23:55:23.640Z,10.50
2018-03-16T23:57:52.884Z,9.70
